Valid Certificates List

All certificates expire July 1 of each year, regardless of date of issuance.

Click on Certificate in Left column to View, Print, Download or Add to Fleet

Click on column header to re-order by that column
Certificate
Boat Type

Boat Name
Buoy
Rating
NS Buoy
Rating

Endorsement

Expire
ABB-BRS39BRISTOL 39 CB IMPULSE 171 242 CRUISER 07/01/2024 
ABR-JBT109J-109 ATHENA 72 104 SPINNAKER 07/01/2024 
AIT-CHY41CHEOY LEE PEDRICK 41 KARMA 132 192 CRUISER 07/01/2024 
ALL-ODY25ODAY 25 BREEZIN 234 288 POCKET CRUISER 07/01/2024 
ALL-ODY272ODAY 272 LE BREEZIN 228 282 POCKET CRUISER 07/01/2024 
AND-BNT10BENETEAU FIRST CLASS 10 MACUSHLA 96 118 SPINNAKER 07/01/2024 
AND-CTL381CATALINA MORGAN 381 BELIEVE 141 198 CRUISER 07/01/2024 
ARC-FRR30FRERS 30 SPRITE 129 153 RACER CRUISER 07/01/2024 
ARM-CTL380CATALINA 380 TM WK SILVER LINING 2 135 178 CRUISER 07/01/2024 
ARN-STL23STILETTO 23 NO NAME ATT -21 MULTI HULL 07/01/2024 
AUM-HNT255HUNTER 25.5 SD AQUA DIEM 213 267 POCKET CRUISER 07/01/2024 
AUM-MRG30MORGAN 30 CB FIXATION 195 258 CRUISER 07/01/2024 
AUR-BNT37BENETEAU OCEANIS 37 NN 111 178 CRUISER 07/01/2024 
AUS-BNT361BENETEAU OCEANIS 361 KANALOA 148 210 CRUISER 07/01/2024 
BAR-MRG28MORGAN 28 MAZEL 201 262 POCKET CRUISER 07/01/2024 
BAR-SVR33SOVEREL 33 BACK OFF 87 109 SPINNAKER 07/01/2024 
BAU-CCC27C&C 27-5 18 DEGREES NORTH 180 223 POCKET CRUISER 07/01/2024 
BEN-CTL22CATALINA 22 MARY BS 267 294 NON SPINNAKER 07/01/2024 
BEN-JBT30J-30 THERAPY 141 162 NON SPINNAKER 07/01/2024 
BEN-JNN45JEANNEAU 45 DS TATTOO 93 149 CRUISER 07/01/2024 
BER-HNT405HUNTER 40.5 ORION 111 146 CRUISER 07/01/2024 
BER-JBT92J-92 RAMBUNCTIOUS 105 142 SPINNAKER 07/01/2024 
BIL-TRT26FTARTAN FANTAIL 26 DIRIGO 150 193 SPINNAKER 07/01/2024 
BLA-HNT36HUNTER 36 INCOMMUNICADO 159 229 CRUISER 07/01/2024 
BLA-HNT37HUNTER CHERUBINI CUTTER 37 RENASCI 174 256 CRUISER 07/01/2024 
BLA-VOY440VOYAGE 440 ELEANOR BRUCE 150 227 MULTI CRUISER 07/01/2024 
BOL-BRS32BRISTOL 32 CB DESIDERATA 231 293 CRUISER 07/01/2024 
BON-ABG30ALBERG 30 REBA 228 303 POCKET CRUISER 07/01/2024 
BON-BNT473BENETEAU 473 SD SALINITY 90 125 CRUISER 07/01/2024 
BON-NTHCLANORTHEAST HARBOR A CLASS WHIM 290 332 NON SPINNAKER 07/01/2024 
BOO-MLG32MELGES 32 SHAMBHALA 27 76 SPINNAKER 07/01/2024 
BOO-TRT41TARTAN 4100 SD TM ADDICTION 108 129 RACER CRUISER 07/01/2024 
BOS-PRS30PEARSON FLYER WT FLYER 135 156 SPINNAKER 07/01/2024 
BOU-CTL350CATALINA 350 LAGNIAPPE 156 222 CRUISER 07/01/2024 
BRA-SAL44SALONA 44 PETISA 72 92 RACER CRUISER 07/01/2024 
BRI-BNT36S7BENETEAU FIRST 36S7 DAYDREAMER 114 171 CRUISER 07/01/2024 
BRO-FAR44FARR 44 CB PHOENIX 48 103 CRUISER 07/01/2024 
BRU-JBT80J-80 AWAKEN 123 170 SPINNAKER 07/01/2024 
BRY-TRT26TARTAN 26 LOWETIDE 237 284 POCKET CRUISER 07/01/2024 
BUC-JBT32J-32 SD LEARNING TO FLY II 132 151 SPINNAKER 07/01/2024 
BUR-DUF34DUFOUR 34 REVENGE 144 166 RACER CRUISER 07/01/2024 
BUR-FAR395FARR 395 SD NO LIMIT 51 92 SPINNAKER 07/01/2024 
BUS-BNT367BENETEAU FIRST 36.7 SCORPION 87 106 RACER CRUISER 07/01/2024 
BUS-HNT42HUNTER 420 SERENDIPITY 132 193 CRUISER 07/01/2024 
CAP-WQZ40WAUQUIEZ CENTURION 40S TANGEAUX 81 118 CRUISER 07/01/2024 
CHA-CTL27CATALINA 27 TM IB SWEET SURRENDER 198 261 POCKET CRUISER 07/01/2024 
CHA-JBT24J-24 SABOTAGE 171 194 SPINNAKER 07/01/2024 
CHO-MRG365MORGAN NELSON MAREK 36-5 RUBY 96 119 RACER CRUISER 07/01/2024 
CIC-BNT411BENETEAU OCEANIS 411 VA BENE 108 162 CRUISER 07/01/2024 
CLA-CORF31CORSAIR F-31 GUACAMAYA -15 30 MULTI HULL 07/01/2024 
CLE-MLG24MELGES 24 WHIPLASH 93 132 SPINNAKER 07/01/2024 
COC-GMN35GEMINI LEGACY 35 SIRENIA 183 220 MULTI CRUISER 07/01/2024 
COL-JBT24J-24 TIC SP NO DIRECTON 171 200 SPINNAKER 07/01/2024 
COL-NOE30NOELEX30 KATIE 120 138 SPINNAKER 07/01/2024 
CON-SVR26SOVEREL 26 OBSESSION 165 191 SPINNAKER 07/01/2024 
COR-ODY19ODAY 19 SKYROCKET 258 289 NON SPINNAKER 07/01/2024 
COX-BNT38S5BENETEAU FIRST 38S5 OCEAN SUITE 105 157 CRUISER 07/01/2024 
CUM-CTL375CATALINA 375 FLORA 147 204 CRUISER 07/01/2024 
CUP-CSS33CS 33 SECOND WIND 147 217 CRUISER 07/01/2024 
CUS-HAR20HARBOR 20 KNOT AT WORK 222 258 NON SPINNAKER 07/01/2024 
CUS-JBT105SDJ-105 SD FIRE & ICE 87 124 SPINNAKER 07/01/2024 
DAG-JBT24J-24 MUSTACHE RIDE 171 200 SPINNAKER 07/01/2024 
DAG-MLG24MELGES 24 MUSTACHE RIDE 93 133 SPINNAKER 07/01/2024 
DAN-CCC30C&C 30 WINGS 174 222 POCKET CRUISER 07/01/2024 
DAN-HNT37HUNTER 37 CUT MIDNIGHT SUN 171 220 CRUISER 07/01/2024 
DAN-JBT112J-112E WINGS 63 108 SPINNAKER 07/01/2024 
DAS-CTL30CATALINA 30 STD RIG FK CHELSABELLA 183 249 CRUISER 07/01/2024 
DAV-TRT37TARTAN 37-2 GRRRRR 138 181 CRUISER 07/01/2024 
DER-COR24CORSAIR F-24 MK1 TRIIT 99 164 MULTI HULL 07/01/2024 
DEV-BNT235BENETEAU FIRST 235 WK BUONA VITA 198 243 NON SPINNAKER 07/01/2024 
DIO-BNT36BENETEAU FIRST 36 PRONTO 39 82 SPINNAKER 07/01/2024 
DOW-STL27STILETTO 27 IGUANA 18 94 MULTI HULL 07/01/2024 
DUM-TRP38TRIPP 38 ML WARRIOR 57 80 SPINNAKER 07/01/2024 
DWY-JBT9J-9-SPRIT THE LITTLE BOAT 117 155 RACER CRUISER 07/01/2024 
DYK-COR31RCORSAIR F-31R AFT CABIN TEMPLE OF THE WIND -9 30 MULTI HULL 07/01/2024 
EBE-JBT35J-35 SLOOP DU JOUR 72 95 RACER CRUISER 07/01/2024 
EGE-CLG26COLGATE 26 FLUIDMAX 165 208 NON SPINNAKER 07/01/2024 
ELL-MOO41MOODY 41AC VAYU 117 145 RACER CRUISER 07/01/2024 
ELM-CAL332CAL 33-2 SD PARADISO 138 205 CRUISER 07/01/2024 
ELW-HKS34HOOKS KELLY CUSTOM 34 ISLAND HOPPER 171 236 CRUISER 07/01/2024 
ENG-CTL350CATALINA 350 MK II ANDIAMO 156 217 CRUISER 07/01/2024 
ENT-COR28CORSAIR 28R PATHFINDER 21 61 MULTI HULL 07/01/2024 
ETH-ELL770ELLIOT 770 PORC 111 158 SPINNAKER 07/01/2024 
ETT-CAL35CAL 35 MK II SPINDRIFT 150 215 CRUISER 07/01/2024 
EVA-ALE28ALERION EXPRESS 28 SUNDANCE 168 199 NON SPINNAKER 07/01/2024 
FIS-STL30STILETTO 30 MIRAGE 35 MULTI HULL 07/01/2024 
FOR-JBT112EJ-112E SILVER SURFER 63 108 SPINNAKER 07/01/2024 
FOS-CMPLEGCOMPAC LEGACY BLUE WATER DREAMER 306 351 POCKET CRUISER 07/01/2024 
FOS-JNN37JEANNEAU SUN ODYSSEY 37 JOAN MARIE III 150 212 CRUISER 07/01/2024 
FOU-JBT24J-24 SHWING 171 196 SPINNAKER 07/01/2024 
FRA-MRG27MORGAN 27 THUNDER 174 201 NON SPINNAKER 07/01/2024 
GAG-LEO39LEOPARD 39 SEA SUITE 156 195 MULTI CRUISER 07/01/2024 
GAR-IRW38IRWIN 38 CC AFTER YOU 147 226 CRUISER 07/01/2024 
GAT-PAL43PALMER JOHNSON 43 FRUITION 105 141 CRUISER 07/01/2024 
GAU-BNT361BENETEAU OCEANIS 361 GALENE 148 209 CRUISER 07/01/2024 
GEI-HNT420HUNTER H420 RAZZMATAZZ 132 184 CRUISER 07/01/2024 
GER-CLM30SCOLUMBIA 30 SPORT CAHOOTS 78 133 SPINNAKER 07/01/2024 
GIF-JBT22J-22 VOLANT II 180 205 SPINNAKER 07/01/2024 
GIL-BNT341BENETEAU OCEANS 34.1 SARANADE 123 145 CRUISER 07/01/2024 
GIM-MRT243MARTIN 243 GIMMI SHELTER 69 125 SPINNAKER 07/01/2024 
GLA-JBT111J-111 RIPPLE 42 91 SPINNAKER 07/01/2024 
GLA-MER22MERIT 22 NO NAME 213 250 POCKET CRUISER 07/01/2024 
GLE-BNT461BENETEAU OCEANIS 461 XTC 96 158 CRUISER 07/01/2024 
GRA-ERC323ERICSON 32-3 SM MOONSHINE 165 219 POCKET CRUISER 07/01/2024 
GRA-IRW32IRWIN 32 QUEST 201 239 CRUISER 07/01/2024 
GRE-CTL320CATALINA 320 WK WIND DANCER 165 214 CRUISER 07/01/2024 
GRO-JNN43JEANNEAU 43 SUN ODYSSEY SALT D 117 170 CRUISER 07/01/2024 
GUE-IRW54IRWIN 54 CUSTOM SLOOP CUMBIA 84 155 CRUISER 07/01/2024 
GUI-S2S79S2 7.9 GRAND SLAM YOU KNOW WHO 168 189 SPINNAKER 07/01/2024 
HAE-CTL30CATALINA 30 LUCKY J 171 244 CRUISER 07/01/2024 
HAH-OLS30OLSON 30 RAEGAN-E 99 122 SPINNAKER 07/01/2024 
HAI-PRS39PEARSON 39-2 SCOTCH BONNET 114 138 NON SPINNAKER 07/01/2024 
HAL-HOL20HOLDER 20 RUNAWAY 186 209 NON SPINNAKER 07/01/2024 
HAM-HYL54HYLAS 54 RS JOHN HAMM JR 78 144 CRUISER 07/01/2024 
HAM-JBT70J-70 NOT SURE ABOUT THIS 117 174 SPINNAKER 07/01/2024 
HAR-AER38AERODYNE 38 MOD SHARK RIDER 36 80 SPINNAKER 07/01/2024 
HAR-COR31CORSAIR F-31 CC MYTRI -15 32 MULTI HULL 07/01/2024 
HAR-CTL42CATALINA 42 WK IMPETUOUS 120 163 CRUISER 07/01/2024 
HAR-JBT34J-34C MOJO 120 180 CRUISER 07/01/2024 
HAR-JBT9J-9-SPRIT PRONTO 120 143 SPINNAKER 07/01/2024 
HAR-LSR28LASER 28 TENACITY 135 154 SPINNAKER 07/01/2024 
HAS-CAL28CAL 28 FLAT TOP PASSING WIND 206 244 POCKET CRUISER 07/01/2024 
HAW-STU20STUART MARINER LAPWING 285 313 RACER CRUISER 07/01/2024 
HEA-COR24CORSAIR F-24 MK II F BOMB 84 112 MULTI HULL 07/01/2024 
HIC-PDQ36PDQ 36 NOSHOOZ 156 228 MULTI CRUISER 07/01/2024 
HIN-SBR30SABRE 30 MK II SD WINDSONG 177 226 POCKET CRUISER 07/01/2024 
HOA-CTL425CATALINA 425 WK BLUE HERON 124 164 CRUISER 07/01/2024 
HOB-CTL22CATALINA 22 EASY WIND 270 297 SPINNAKER 07/01/2024 
HOL-LEO42LEOPARD 42 HONUEA 142 209 MULTI CRUISER 07/01/2024 
HOL-SON23SONAR FAWKES 177 203 SPINNAKER 07/01/2024 
HOR-COR750CORSAIR 750 DASH MK I LICENCE TO KILL 39 52 MULTI CRUISER 07/01/2024 
HOR-CUS32CUSTOM 32 WICKED WICKED WAYS 170 229 CRUISER 07/01/2024 
HOR-TRT33TARTAN 33 EROICA 153 193 NON SPINNAKER 07/01/2024 
HOW-SHA37SHANNON 37 QUERENCIA 174 256 CRUISER 07/01/2024 
HUB-ROG24RODGERS 24 GREEN FLASH 192 244 POCKET CRUISER 07/01/2024 
HUN-MRG22MORGAN 22 DUNGLE JUMS 240 279 NON SPINNAKER 07/01/2024 
HUT-BNT30BENETEAU OCEANIS 30.1 CRUSADER 170 233 POCKET CRUISER 07/01/2024 
JAC-JBT22J-22 JABBERWOCKY 180 210 SPINNAKER 07/01/2024 
JAN-S2S67S2 6.7 GRAN SLAM 6.7 SHIVA 210 244 NON SPINNAKER 07/01/2024 
JOH-HNT34HUNTER 340 SD BODACIOUS 150 206 CRUISER 07/01/2024 
JOH-STL30STILETTO 30 SUNSPOT 49 MULTI HULL 07/01/2024 
JON-S2S91S2 9.1 PRIVATEER 132 154 SPINNAKER 07/01/2024 
JUD-COR24CORSAIR F-24 MK II WITCHIEPOO 84 113 MULTI HULL 07/01/2024 
KAN-DUF485DUFOUR 485 CITIZEN KANE 2 69 125 CRUISER 07/01/2024 
KAP-HNT430HUNTER 430 STAR GAZER 111 185 CRUISER 07/01/2024 
KAR-JBT105SDJ-105 SD RAPTOR 87 124 SPINNAKER 07/01/2024 
KEE-MIR236MIRAGE 236 SLEEPER 180 205 SPINNAKER 07/01/2024 
KEL-S2S79S2 7.9 MAR Y SOL 168 189 SPINNAKER 07/01/2024 
KEN-TRT40TARTAN T40 LEGACY 111 167 CRUISER 07/01/2024 
KLE-HNT37HUNTER 37 LEGEND WK SPECIAL K 114 155 CRUISER 07/01/2024 
KLO-PRS39PEARSON 39-2 LIBELULA 114 180 CRUISER 07/01/2024 
KNA-WWD38WESTWIND 38 SERENADE 186 248 CRUISER 07/01/2024 
KOL-COR24CORSAIR F-24 MK1 RUNNING WITH SCISSORS 99 155 MULTI HULL 07/01/2024 
KOR-S2S91S2 9.1 MELTEMI 132 154 SPINNAKER 07/01/2024 
KOU-TRP33TRIPP 33 UDACHA 79 112 SPINNAKER 07/01/2024 
KRE-JBT24J-24 RAGGED EDGE 171 194 SPINNAKER 07/01/2024 
KRI-HNT356HUNTER 356 BELLA VITA 153 233 CRUISER 07/01/2024 
LAC-S2S91S2 9.1 BAYWOLF 132 154 SPINNAKER 07/01/2024 
LAN-MRG24MORGAN 24 BLUE CHIP 222 277 POCKET CRUISER 07/01/2024 
LAN-NIG35NIGHTWIND 35 CHARISMA 114 164 CRUISER 07/01/2024 
LAN-PRS33PEARSON VANGUARD BAY WOOF 189 256 CRUISER 07/01/2024 
LAN-S2S79S2 7.9 IB GYPSY SOUL 171 201 POCKET CRUISER 07/01/2024 
LAN-SBR341SABRE 34-1 EVENTIDE 156 225 CRUISER 07/01/2024 
LAR-VIC35VICTORY 35 OUR VALHALLA II 150 226 MULTI CRUISER 07/01/2024 
LAT-SRR33SR-33 ALPHADOG 63 80 SPINNAKER 07/01/2024 
LAW-OLS25OLSON 25 MAHALO 159 183 SPINNAKER 07/01/2024 
LEM-ODY40ODAY 40 SD MOTHER OCEAN 132 174 CRUISER 07/01/2024 
LEW-MIR33MIRAGE 33 SLOW BELL 150 198 CRUISER 07/01/2024 
LIN-ERC30ERICSON 30 SPIRIT 150 175 RACER CRUISER 07/01/2024 
LOP-FAR395FARR 395 SD WASABI 51 92 SPINNAKER 07/01/2024 
LOT-HNT376HUNTER 376 EAGLE 1 126 201 CRUISER 07/01/2024 
LOV-CTL402CATALINA 400 MKII ONDE DARGENTO 129 202 CRUISER 07/01/2024 
LOV-STL27STILETTO 27 WORMWOOD MOD AMERICAN SPIRIT 18 69 MULTI HULL 07/01/2024 
MAG-JBT22J-22 HOLYMOLY 180 210 SPINNAKER 07/01/2024 
MAN-JBT291J-29 MH OB SEMPER FI 111 134 SPINNAKER 07/01/2024 
MAR-CAL24CAL 24 ECHO 210 246 POCKET CRUISER 07/01/2024 
MAR-CTL387CATALINA 387 SEA CUP 148 221 CRUISER 07/01/2024 
MAT-PRS281PEARSON 28-1 PRANA 192 224 POCKET CRUISER 07/01/2024 
MAT-SBR28SABRE 28-2 SPIRIT 198 243 NON SPINNAKER 07/01/2024 
MAZ-CTL30CATALINA 30 WK KARMA 189 243 CRUISER 07/01/2024 
MCC-CTL42CATALINA 42 MARK 1 WINDCALLER 108 155 CRUISER 07/01/2024 
MCC-LHR48LITTLE HARBOR 48 BRIZO 102 159 CRUISER 07/01/2024 
MCC-PRS22PEARSON ENSIGN SCOTS AND H20 258 278 NON SPINNAKER 07/01/2024 
MCD-PRS35PEARSON 35 CB MODIFIED ESSENCE 168 192 NON SPINNAKER 07/01/2024 
MEL-EVL322EVELYN 32 FINESSE 105 128 SPINNAKER 07/01/2024 
MER-BBO32B-32 CHIPS ALL IN 63 81 SPINNAKER 07/01/2024 
MEY-BNT36BENETEAU OCEANIS 36 CC NEPTUNES DAUGHTER 142 195 CRUISER 07/01/2024 
MIC-OVN35OVNI 35 LADY IN RED 129 182 CRUISER 07/01/2024 
MID-BNT473BENETEAU OCEANIS 473 OFFLINE 90 148 CRUISER 07/01/2024 
MIE-MLG24MELGES 24 PINK PONY CLUB 93 133 SPINNAKER 07/01/2024 
MIL-BNT43BENETEAU OCEANIS 43 WATERLOU 120 186 CRUISER 07/01/2024 
MIL-CCC34C&C 34+ WK PEPPER 99 131 CRUISER 07/01/2024 
MIL-RNG28RANGER 28TM DK LONE RANGER 183 233 POCKET CRUISER 07/01/2024 
MIT-JBT105J-105 BREEZIN BAYOU 78 114 SPINNAKER 07/01/2024 
MIX-NIG35NIGHTWIND 35 RED SKY 114 152 CRUISER 07/01/2024 
MOO-COR28CORSAIR F-28R KNOT YET 21 50 MULTI HULL 07/01/2024 
MOR-CTL27CATALINA 27 TM IB DULCINEA 198 246 POCKET CRUISER 07/01/2024 
MUN-NEO430NEO 430 COCONUT -43 -6 RACER CRUISER 07/01/2024 
MYE-SVR33SOVEREL 33 YARD GOAT 87 108 SPINNAKER 07/01/2024 
NEF-COR750CORSAIR SPRINT 750 MK II TRI FORCE 33 85 MULTI HULL 07/01/2024 
NEL-CTL342CATALINA 34 MK II TM WK MEESHEE 150 224 CRUISER 07/01/2024 
NEL-CTL445CATALINA 445 AU PARADIS 117 192 CRUISER 07/01/2024 
NGU-BUC40BUCCANEER 40 AMERICAN DREAM 51 86 MULTI CRUISER 07/01/2024 
NGU-FFF30F-30 SPORT CATAMARAN DOUBLE BARREL -24 10 MULTI HULL 07/01/2024 
NOR-IPA40ISLAND PACKET 40 FLAGSHIP 150 232 CRUISER 07/01/2024 
NOV-FFF33RXF-33RX TRIPLE THREAT -33 -9 MULTI HULL 07/01/2024 
OCO-ELL770ELLIOT 770 MOJO 111 158 SPINNAKER 07/01/2024 
ODO-HAR20HARBOR 20 FORTUNATE LEE 222 261 NON SPINNAKER 07/01/2024 
ONE-ERC23ERICSON 23-2 CLAIM WEEKS 234 265 SPINNAKER 07/01/2024 
ONO-HNT285HUNTER 28.5 SD GLORY 195 237 POCKET CRUISER 07/01/2024 
OWE-MLG24MELGES 24 ROGUE 93 133 SPINNAKER 07/01/2024 
PAS-BNT477BENETEAU FIRST 47.7 FREEDOM OF HAMBLE 42 61 RACER CRUISER 07/01/2024 
PAS-END33ENDEAVOR 33 AIR APPARENT 162 227 CRUISER 07/01/2024 
PAW-CPR26CAPRI 26 REALITY 222 255 NON SPINNAKER 07/01/2024 
PER-CTL30CATALINA 30 MK3 WK FINE ALEE 189 259 CRUISER 07/01/2024 
PET-ABB33ABBOTT 33 TIGRESS 129 153 POCKET CRUISER 07/01/2024 
PET-CHE48CHERUBINI 48 SCH WHITE HAWK 111 169 CRUISER 07/01/2024 
PHI-BAB35BABA 35 PLAY ACTOR 195 266 CRUISER 07/01/2024 
PIM-S279S2 7.9 GRAND SLAM ECHO SHMECHO 168 189 SPINNAKER 07/01/2024 
PLE-MLG24MELGES 24 FIREWATER 93 133 SPINNAKER 07/01/2024 
PLO-SJU28SAN JUAN 28 SLIPPERY WHEN WET 180 209 RACER CRUISER 07/01/2024 
POL-ATL42ATLANTIC 42 ZEST 150 189 MULTI CRUISER 07/01/2024 
POU-MLG24MELGES 24 LONG SHOT 93 133 SPINNAKER 07/01/2024 
POW-CTL309CATALINA 309 WK AFTER MATH II 174 233 CRUISER 07/01/2024 
PRO-TRT3500TARTAN 3500 SOLREBEL 120 164 CRUISER 07/01/2024 
QUI-TRT3700TARTAN 3700 CCR QUINESSENTIAL 102 151 CRUISER 07/01/2024 
RAN-CTL315CATALINA 315 WK TAKE FIVE 192 261 CRUISER 07/01/2024 
REA-WVL24WAVELENGTH 24 ABRACADABRA 159 183 SPINNAKER 07/01/2024 
REI-BNT46BENETEAU OCEANIS 46 ISLAND TIME II 96 151 CRUISER 07/01/2024 
REI-MCG26MACGREGOR 26D WATER BALLAST CHEATER BEATER 210 243 NON SPINNAKER 07/01/2024 
REI-OLS30OLSON 30 HOT TUNA 99 130 NON SPINNAKER 07/01/2024 
REU-PRS31PEARSON 31-2 WK SANS SOUCI 171 229 CRUISER 07/01/2024 
REY-TRT33TARTAN 33 KOINONIA II 153 200 POCKET CRUISER 07/01/2024 
RHO-HOB33HOBIE 33 SEAN RHONE 96 117 SPINNAKER 07/01/2024 
RIC-S2S79S2 7.9 T BONE 168 189 SPINNAKER 07/01/2024 
RID-GUL39GULFSTAR 39 SAILMASTER DESERT SOL 147 226 CRUISER 07/01/2024 
RIP-VAI40VALIANT 40 EQUINOX 141 211 CRUISER 07/01/2024 
ROB-CTL310CATALINA 310 WK LEGACY 198 257 CRUISER 07/01/2024 
ROB-END35ENDEAVOUR 35 CHANCES R 138 206 CRUISER 07/01/2024 
ROD-COR37CORSAIR C 37 BLANC -24 10 MULTI HULL 07/01/2024 
ROD-ERC38ERICSON 38 200 PAPER MOON 123 194 CRUISER 07/01/2024 
ROH-SWN53SWAN 53 DRAGON FLY PLUS 37 67 CRUISER 07/01/2024 
ROS-LHR63LITTLE HARBOR 63 SLOOP CORSAIR 54 119 CRUISER 07/01/2024 
ROY-CTL440CATALINA MORGAN 440 TRUE LOVE 108 165 CRUISER 07/01/2024 
ROY-MOE30MOORE 30 BEER MONEY 48 66 SPINNAKER 07/01/2024 
RUA-BNT40BENETEAU 40 LIQUID TIME 111 141 RACER CRUISER 07/01/2024 
RUM-HRT36HERITAGE WEST INDIES 36CB ANOTHER ROAD 150 200 CRUISER 07/01/2024 
RUS-CAL27CAL 27-2 IB ADVENTURE 204 232 NON SPINNAKER 07/01/2024 
RUS-DRA920HDRAGONFLY 920 HYBRID TRIFLYNII 58 MULTI CRUISER 07/01/2024 
RUT-CCC36C&C 36 CB CHAMAME 141 182 CRUISER 07/01/2024 
RYC-TRP26TRIPP 26 ODR VOLCANO 117 136 SPINNAKER 07/01/2024 
SAN-CCC24C&C 24 CAYENNITA III 222 279 POCKET CRUISER 07/01/2024 
SAN-FRE21FREEDOM 21 SLP SD CACTUS 249 273 POCKET CRUISER 07/01/2024 
SCH-MLG24MELGES 24 OBSESSION 93 135 SPINNAKER 07/01/2024 
SCH-TRT33TARTAN 33 RADIANT 153 198 NON SPINNAKER 07/01/2024 
SEL-CCC30C&C 30 MKII WING KEEL CORALEI 150 204 POCKET CRUISER 07/01/2024 
SEL-JBT27J-27 JUNIOR 126 146 SPINNAKER 07/01/2024 
SHE-MRG24MORGAN 24/25 KOMUS 222 258 CRUISER 07/01/2024 
SHO-CTL362CATALINA 36-2 WK HULA GIRL 2 153 206 CRUISER 07/01/2024 
SIE-MRT243MARTIN 243 TACK TICK 69 123 SPINNAKER 07/01/2024 
SIM-ERC323ERICSON 32-3 SM BUMBUGO 165 225 POCKET CRUISER 07/01/2024 
SIM-HNT376HUNTER 376 SD WK PRIVATEER 126 189 CRUISER 07/01/2024 
SMI-BBO25B-25 FULLY INVOLVED 138 159 SPINNAKER 07/01/2024 
SMI-BNT411BENETEAU OCEANIS 411 SUN DANCER 123 163 NON SPINNAKER 07/01/2024 
SMI-S2S79S2 7.9 GRAND SLAM TIGGER II 168 209 POCKET CRUISER 07/01/2024 
STA-NON354NONSUCH 354 MATOU 171 171 NON SPINNAKER 07/01/2024 
STA-STL27STILETTO 27 KRAKIAN 24 77 MULTI HULL 07/01/2024 
STE-JBT70J-70 INSTANT KARMA 117 175 SPINNAKER 07/01/2024 
STJ-SRR21SR-21 SLOT MACHINE 147 185 SPINNAKER 07/01/2024 
STO-CCC33C&C 33 MK2 CB ESPERANZA 144 197 POCKET CRUISER 07/01/2024 
TAY-CTL36CATALINA 36 MKII TM ENVISION 153 216 CRUISER 07/01/2024 
THI-MLG20MELGES 20 NEW WAVE 126 178 SPINNAKER 07/01/2024 
THI-MLG24MELGES 24 SNAFU 93 133 SPINNAKER 07/01/2024 
TOR-MLG24MELGES 24 SMILE AND WAVE 93 133 SPINNAKER 07/01/2024 
TOU-JBT22J-22 MOJO 180 208 SPINNAKER 07/01/2024 
TRE-HAR20HARBOR 20 OTTO 222 264 NON SPINNAKER 07/01/2024 
TRO-PRS323PEARSON 323 KROPKA 177 243 CRUISER 07/01/2024 
TUC-END37ENDEAVOUR 37.4 GEODESIC 2 189 263 CRUISER 07/01/2024 
VAN-CTL425CATALINA 425 WK SATORI 111 158 CRUISER 07/01/2024 
VAN-HAR20HARBOR 20 FLYING CLOUD 222 249 SPINNAKER 07/01/2024 
VAN-NON30NONSUCH 30 FIDDLESTICKS 180 191 CRUISER 07/01/2024 
VYC-RNG33RANGER 33 JOY 159 202 NON SPINNAKER 07/01/2024 
WAL-COT34CONTOUR SC 34 TRIMARAN COOL BREEZE 18 60 MULTI CRUISER 07/01/2024 
WAR-CLE36CLEARWATER 36 CB LOON 126 158 NON SPINNAKER 07/01/2024 
WEI-JBT100J-100 SD ZEPHYR 93 134 SPINNAKER 07/01/2024 
WES-HNT405HUNTER 40.5 LEGEND NATAMUS 111 179 CRUISER 07/01/2024 
WHI-END33ENDEAVOUR 33 INTOBA 165 210 NON SPINNAKER 07/01/2024 
WHI-HNT27HUNTER CHERUBINI 27 WHYTE LOTUS 228 296 POCKET CRUISER 07/01/2024 
WHI-SBR282SABRE 282 SD INTERMISSION 216 262 NON SPINNAKER 07/01/2024 
WIL-COR750CORSAIR SPRINT 750 THEDARKSIDE 33 52 MULTI HULL 07/01/2024 
WIL-HNT30HUNTER 30 SOLITUDE 189 230 NON SPINNAKER 07/01/2024 
WIL-SWN37SWAN 37 EOLO 129 155 NON SPINNAKER 07/01/2024 
WIL-VOY430VOYAGE NORSEMAN 430 ENDANGERED SPECIES 159 194 MULTI CRUISER 07/01/2024 
WIL-WVL24WAVELENGTH 24 BOAT 159 183 SPINNAKER 07/01/2024 
WIN-JBT35J-35 ROCKET 72 95 SPINNAKER 07/01/2024 
WIT-CTL380CATALINA 380 GUPPIE 129 198 CRUISER 07/01/2024 
WOL-CTL42CATALINA 42 CHECKMATE 114 184 CRUISER 07/01/2024 
WOL-TRT3000TARTAN 3000 RIVA 169 222 POCKET CRUISER 07/01/2024 
WOO-HNT380HUNTER 380 ALEBRIJE 132 196 CRUISER 07/01/2024 
YAC-ALE20ALERION 20 THE GOOSE 225 271 POCKET CRUISER 07/01/2024 

Certificates Valid from 04/01/2023 thru 07/01/2024